sensor_id;sensor_type;location;lat;lon;timestamp;P1;durP1;ratioP1;P2;durP2;ratioP2
7233;SDS011;3658;47.992;10.158;2022-10-16T00:01:13;1.33;;;1.23;;
7233;SDS011;3658;47.992;10.158;2022-10-16T00:03:42;2.60;;;1.50;;
7233;SDS011;3658;47.992;10.158;2022-10-16T00:06:12;2.20;;;1.83;;
7233;SDS011;3658;47.992;10.158;2022-10-16T00:08:39;1.53;;;1.40;;
7233;SDS011;3658;47.992;10.158;2022-10-16T00:11:08;1.97;;;1.70;;
7233;SDS011;3658;47.992;10.158;2022-10-16T00:13:36;1.70;;;1.53;;
7233;SDS011;3658;47.992;10.158;2022-10-16T00:16:06;2.07;;;1.70;;
7233;SDS011;3658;47.992;10.158;2022-10-16T00:18:34;2.23;;;1.47;;
7233;SDS011;3658;47.992;10.158;2022-10-16T00:21:02;1.40;;;1.30;;
7233;SDS011;3658;47.992;10.158;2022-10-16T00:23:31;1.53;;;1.43;;
7233;SDS011;3658;47.992;10.158;2022-10-16T00:25:59;1.40;;;1.30;;
7233;SDS011;3658;47.992;10.158;2022-10-16T00:28:27;1.67;;;1.30;;
7233;SDS011;3658;47.992;10.158;2022-10-16T00:30:55;1.57;;;1.47;;
7233;SDS011;3658;47.992;10.158;2022-10-16T00:33:22;1.97;;;1.40;;
7233;SDS011;3658;47.992;10.158;2022-10-16T00:35:49;1.40;;;1.30;;
7233;SDS011;3658;47.992;10.158;2022-10-16T00:38:16;1.40;;;1.30;;
7233;SDS011;3658;47.992;10.158;2022-10-16T00:40:45;1.60;;;1.50;;
7233;SDS011;3658;47.992;10.158;2022-10-16T00:43:12;1.50;;;1.40;;
7233;SDS011;3658;47.992;10.158;2022-10-16T00:45:57;2.40;;;1.60;;
7233;SDS011;3658;47.992;10.158;2022-10-16T00:48:25;1.33;;;1.23;;
7233;SDS011;3658;47.992;10.158;2022-10-16T00:50:52;1.73;;;1.40;;
7233;SDS011;3658;47.992;10.158;2022-10-16T00:53:19;2.10;;;1.37;;
7233;SDS011;3658;47.992;10.158;2022-10-16T00:55:49;1.50;;;1.30;;
7233;SDS011;3658;47.992;10.158;2022-10-16T00:58:16;1.53;;;1.43;;
7233;SDS011;3658;47.992;10.158;2022-10-16T01:00:43;1.40;;;1.30;;
7233;SDS011;3658;47.992;10.158;2022-10-16T01:03:22;1.37;;;1.27;;
7233;SDS011;3658;47.992;10.158;2022-10-16T01:05:53;1.60;;;1.50;;
7233;SDS011;3658;47.992;10.158;2022-10-16T01:08:44;1.53;;;1.43;;
7233;SDS011;3658;47.992;10.158;2022-10-16T01:11:18;1.43;;;1.33;;
7233;SDS011;3658;47.992;10.158;2022-10-16T01:13:53;1.50;;;1.40;;
7233;SDS011;3658;47.992;10.158;2022-10-16T01:16:24;1.73;;;1.50;;
7233;SDS011;3658;47.992;10.158;2022-10-16T01:18:57;7.50;;;1.60;;
7233;SDS011;3658;47.992;10.158;2022-10-16T01:21:29;1.40;;;1.30;;
7233;SDS011;3658;47.992;10.158;2022-10-16T01:24:02;1.43;;;1.33;;
7233;SDS011;3658;47.992;10.158;2022-10-16T01:26:42;2.43;;;1.67;;
7233;SDS011;3658;47.992;10.158;2022-10-16T01:29:20;1.50;;;1.40;;
7233;SDS011;3658;47.992;10.158;2022-10-16T01:31:53;1.97;;;1.60;;
7233;SDS011;3658;47.992;10.158;2022-10-16T01:34:28;1.60;;;1.50;;
7233;SDS011;3658;47.992;10.158;2022-10-16T01:37:00;1.50;;;1.40;;
7233;SDS011;3658;47.992;10.158;2022-10-16T01:39:32;1.87;;;1.37;;
7233;SDS011;3658;47.992;10.158;2022-10-16T01:42:05;1.53;;;1.30;;
7233;SDS011;3658;47.992;10.158;2022-10-16T01:44:36;1.40;;;1.30;;
7233;SDS011;3658;47.992;10.158;2022-10-16T01:47:05;1.53;;;1.43;;
7233;SDS011;3658;47.992;10.158;2022-10-16T01:49:36;1.20;;;1.10;;
7233;SDS011;3658;47.992;10.158;2022-10-16T01:52:05;1.47;;;1.37;;
7233;SDS011;3658;47.992;10.158;2022-10-16T01:54:35;1.60;;;1.50;;
7233;SDS011;3658;47.992;10.158;2022-10-16T01:57:05;1.60;;;1.50;;
7233;SDS011;3658;47.992;10.158;2022-10-16T01:59:35;1.40;;;1.30;;
7233;SDS011;3658;47.992;10.158;2022-10-16T02:02:09;1.40;;;1.30;;
7233;SDS011;3658;47.992;10.158;2022-10-16T02:04:38;1.50;;;1.40;;
7233;SDS011;3658;47.992;10.158;2022-10-16T02:07:06;1.30;;;1.20;;
7233;SDS011;3658;47.992;10.158;2022-10-16T02:09:34;1.70;;;1.37;;
7233;SDS011;3658;47.992;10.158;2022-10-16T02:12:03;1.47;;;1.13;;
7233;SDS011;3658;47.992;10.158;2022-10-16T02:14:34;2.40;;;1.40;;
7233;SDS011;3658;47.992;10.158;2022-10-16T02:17:10;1.40;;;1.30;;
7233;SDS011;3658;47.992;10.158;2022-10-16T02:19:37;1.30;;;1.20;;
7233;SDS011;3658;47.992;10.158;2022-10-16T02:22:06;1.70;;;1.60;;
7233;SDS011;3658;47.992;10.158;2022-10-16T02:24:43;1.40;;;1.30;;
7233;SDS011;3658;47.992;10.158;2022-10-16T02:27:19;1.40;;;1.30;;
7233;SDS011;3658;47.992;10.158;2022-10-16T02:29:51;1.30;;;1.20;;
7233;SDS011;3658;47.992;10.158;2022-10-16T02:32:24;1.30;;;1.20;;
7233;SDS011;3658;47.992;10.158;2022-10-16T02:34:56;1.50;;;1.40;;
7233;SDS011;3658;47.992;10.158;2022-10-16T02:37:27;1.60;;;1.27;;
7233;SDS011;3658;47.992;10.158;2022-10-16T02:39:56;1.57;;;1.47;;
7233;SDS011;3658;47.992;10.158;2022-10-16T02:42:27;1.27;;;1.17;;
7233;SDS011;3658;47.992;10.158;2022-10-16T02:44:57;1.57;;;1.30;;
7233;SDS011;3658;47.992;10.158;2022-10-16T02:47:24;1.40;;;1.30;;
7233;SDS011;3658;47.992;10.158;2022-10-16T02:49:51;1.20;;;1.10;;
7233;SDS011;3658;47.992;10.158;2022-10-16T02:52:18;1.43;;;1.33;;
7233;SDS011;3658;47.992;10.158;2022-10-16T02:54:45;1.40;;;1.30;;
7233;SDS011;3658;47.992;10.158;2022-10-16T02:57:12;1.40;;;1.30;;
7233;SDS011;3658;47.992;10.158;2022-10-16T02:59:39;1.50;;;1.40;;
7233;SDS011;3658;47.992;10.158;2022-10-16T03:02:07;1.10;;;1.10;;
7233;SDS011;3658;47.992;10.158;2022-10-16T03:04:34;1.50;;;1.40;;
7233;SDS011;3658;47.992;10.158;2022-10-16T03:07:01;1.47;;;1.37;;
7233;SDS011;3658;47.992;10.158;2022-10-16T03:09:29;1.30;;;1.20;;
7233;SDS011;3658;47.992;10.158;2022-10-16T03:11:56;1.40;;;1.30;;
7233;SDS011;3658;47.992;10.158;2022-10-16T03:14:23;1.20;;;1.10;;
7233;SDS011;3658;47.992;10.158;2022-10-16T03:16:50;1.30;;;1.20;;
7233;SDS011;3658;47.992;10.158;2022-10-16T03:19:18;1.40;;;1.30;;
7233;SDS011;3658;47.992;10.158;2022-10-16T03:21:45;1.40;;;1.30;;
7233;SDS011;3658;47.992;10.158;2022-10-16T03:24:12;2.00;;;1.20;;
7233;SDS011;3658;47.992;10.158;2022-10-16T03:26:39;1.40;;;1.30;;
7233;SDS011;3658;47.992;10.158;2022-10-16T03:29:06;1.47;;;1.33;;
7233;SDS011;3658;47.992;10.158;2022-10-16T03:31:33;1.30;;;1.20;;
7233;SDS011;3658;47.992;10.158;2022-10-16T03:34:00;1.30;;;1.20;;
7233;SDS011;3658;47.992;10.158;2022-10-16T03:36:29;1.50;;;1.40;;
7233;SDS011;3658;47.992;10.158;2022-10-16T03:38:56;1.20;;;1.10;;
7233;SDS011;3658;47.992;10.158;2022-10-16T03:41:23;1.30;;;1.20;;
7233;SDS011;3658;47.992;10.158;2022-10-16T03:43:50;1.30;;;1.20;;
7233;SDS011;3658;47.992;10.158;2022-10-16T03:46:17;1.30;;;1.10;;
7233;SDS011;3658;47.992;10.158;2022-10-16T03:48:44;1.43;;;1.33;;
7233;SDS011;3658;47.992;10.158;2022-10-16T03:51:11;1.40;;;1.27;;
7233;SDS011;3658;47.992;10.158;2022-10-16T03:53:39;1.40;;;1.30;;
7233;SDS011;3658;47.992;10.158;2022-10-16T03:56:06;1.30;;;1.20;;
7233;SDS011;3658;47.992;10.158;2022-10-16T03:58:33;1.20;;;1.10;;
7233;SDS011;3658;47.992;10.158;2022-10-16T04:01:00;1.30;;;1.20;;
7233;SDS011;3658;47.992;10.158;2022-10-16T04:03:27;1.40;;;1.30;;
7233;SDS011;3658;47.992;10.158;2022-10-16T04:05:54;1.30;;;1.20;;
7233;SDS011;3658;47.992;10.158;2022-10-16T04:08:21;1.80;;;1.27;;
7233;SDS011;3658;47.992;10.158;2022-10-16T04:10:50;1.23;;;1.13;;
7233;SDS011;3658;47.992;10.158;2022-10-16T04:13:17;1.13;;;1.10;;
7233;SDS011;3658;47.992;10.158;2022-10-16T04:15:44;2.57;;;1.20;;
7233;SDS011;3658;47.992;10.158;2022-10-16T04:18:11;1.10;;;1.00;;
7233;SDS011;3658;47.992;10.158;2022-10-16T04:20:38;1.30;;;1.20;;
7233;SDS011;3658;47.992;10.158;2022-10-16T04:23:05;1.27;;;1.17;;
7233;SDS011;3658;47.992;10.158;2022-10-16T04:25:32;1.33;;;1.23;;
7233;SDS011;3658;47.992;10.158;2022-10-16T04:28:01;1.27;;;1.17;;
7233;SDS011;3658;47.992;10.158;2022-10-16T04:30:28;1.10;;;1.10;;
7233;SDS011;3658;47.992;10.158;2022-10-16T04:32:55;1.23;;;1.13;;
7233;SDS011;3658;47.992;10.158;2022-10-16T04:35:22;1.30;;;1.10;;
7233;SDS011;3658;47.992;10.158;2022-10-16T04:37:49;1.30;;;1.20;;
7233;SDS011;3658;47.992;10.158;2022-10-16T04:40:16;1.00;;;1.00;;
7233;SDS011;3658;47.992;10.158;2022-10-16T04:42:44;1.30;;;1.20;;
7233;SDS011;3658;47.992;10.158;2022-10-16T04:45:13;1.20;;;1.10;;
7233;SDS011;3658;47.992;10.158;2022-10-16T04:47:40;1.30;;;1.20;;
7233;SDS011;3658;47.992;10.158;2022-10-16T04:50:07;1.20;;;1.10;;
7233;SDS011;3658;47.992;10.158;2022-10-16T04:52:34;1.20;;;1.10;;
7233;SDS011;3658;47.992;10.158;2022-10-16T04:55:01;1.30;;;1.20;;
7233;SDS011;3658;47.992;10.158;2022-10-16T04:57:29;1.13;;;1.10;;
7233;SDS011;3658;47.992;10.158;2022-10-16T04:59:56;1.60;;;1.20;;
7233;SDS011;3658;47.992;10.158;2022-10-16T05:02:24;1.37;;;1.20;;
7233;SDS011;3658;47.992;10.158;2022-10-16T05:04:51;1.23;;;1.13;;
7233;SDS011;3658;47.992;10.158;2022-10-16T05:07:18;1.17;;;1.07;;
7233;SDS011;3658;47.992;10.158;2022-10-16T05:09:45;1.30;;;1.20;;
7233;SDS011;3658;47.992;10.158;2022-10-16T05:12:12;1.20;;;1.10;;
7233;SDS011;3658;47.992;10.158;2022-10-16T05:14:39;1.30;;;1.20;;
7233;SDS011;3658;47.992;10.158;2022-10-16T05:17:06;1.10;;;1.00;;
7233;SDS011;3658;47.992;10.158;2022-10-16T05:19:37;1.07;;;1.03;;
7233;SDS011;3658;47.992;10.158;2022-10-16T05:22:04;1.20;;;1.10;;
7233;SDS011;3658;47.992;10.158;2022-10-16T05:24:31;1.20;;;1.10;;
7233;SDS011;3658;47.992;10.158;2022-10-16T05:26:58;2.00;;;1.10;;
7233;SDS011;3658;47.992;10.158;2022-10-16T05:29:25;1.10;;;1.00;;
7233;SDS011;3658;47.992;10.158;2022-10-16T05:31:52;1.00;;;1.00;;
7233;SDS011;3658;47.992;10.158;2022-10-16T05:34:19;1.20;;;1.10;;
7233;SDS011;3658;47.992;10.158;2022-10-16T05:36:48;1.10;;;1.00;;
7233;SDS011;3658;47.992;10.158;2022-10-16T05:39:15;1.33;;;1.23;;
7233;SDS011;3658;47.992;10.158;2022-10-16T05:41:43;1.50;;;1.40;;
7233;SDS011;3658;47.992;10.158;2022-10-16T05:44:10;1.17;;;1.07;;
7233;SDS011;3658;47.992;10.158;2022-10-16T05:46:37;1.20;;;1.10;;
7233;SDS011;3658;47.992;10.158;2022-10-16T05:49:04;1.27;;;1.17;;
7233;SDS011;3658;47.992;10.158;2022-10-16T05:51:31;1.00;;;1.00;;
7233;SDS011;3658;47.992;10.158;2022-10-16T05:53:59;1.00;;;1.00;;
7233;SDS011;3658;47.992;10.158;2022-10-16T05:56:26;1.00;;;1.00;;
7233;SDS011;3658;47.992;10.158;2022-10-16T05:58:53;1.27;;;1.17;;
7233;SDS011;3658;47.992;10.158;2022-10-16T06:01:20;1.20;;;1.10;;
7233;SDS011;3658;47.992;10.158;2022-10-16T06:03:49;1.00;;;1.00;;
7233;SDS011;3658;47.992;10.158;2022-10-16T06:06:16;1.23;;;1.13;;
7233;SDS011;3658;47.992;10.158;2022-10-16T06:08:45;1.40;;;1.30;;
7233;SDS011;3658;47.992;10.158;2022-10-16T06:11:15;0.90;;;0.90;;
7233;SDS011;3658;47.992;10.158;2022-10-16T06:13:43;1.10;;;1.00;;
7233;SDS011;3658;47.992;10.158;2022-10-16T06:16:12;1.20;;;1.00;;
7233;SDS011;3658;47.992;10.158;2022-10-16T06:18:39;1.30;;;1.20;;
7233;SDS011;3658;47.992;10.158;2022-10-16T06:21:07;1.47;;;0.90;;
7233;SDS011;3658;47.992;10.158;2022-10-16T06:23:35;1.20;;;1.10;;
7233;SDS011;3658;47.992;10.158;2022-10-16T06:26:05;1.20;;;1.10;;
7233;SDS011;3658;47.992;10.158;2022-10-16T06:28:34;1.00;;;1.00;;
7233;SDS011;3658;47.992;10.158;2022-10-16T06:31:02;1.13;;;1.07;;
7233;SDS011;3658;47.992;10.158;2022-10-16T06:33:30;2.50;;;1.00;;
7233;SDS011;3658;47.992;10.158;2022-10-16T06:36:00;1.70;;;1.20;;
7233;SDS011;3658;47.992;10.158;2022-10-16T06:38:28;1.63;;;0.93;;
7233;SDS011;3658;47.992;10.158;2022-10-16T06:40:55;1.93;;;1.00;;
7233;SDS011;3658;47.992;10.158;2022-10-16T06:43:22;1.60;;;1.10;;
7233;SDS011;3658;47.992;10.158;2022-10-16T06:45:52;1.30;;;1.20;;
7233;SDS011;3658;47.992;10.158;2022-10-16T06:48:19;1.40;;;0.90;;
7233;SDS011;3658;47.992;10.158;2022-10-16T06:50:54;1.13;;;1.03;;
7233;SDS011;3658;47.992;10.158;2022-10-16T06:53:23;1.30;;;1.20;;
7233;SDS011;3658;47.992;10.158;2022-10-16T06:55:50;1.10;;;1.07;;
7233;SDS011;3658;47.992;10.158;2022-10-16T06:58:17;1.10;;;1.00;;
7233;SDS011;3658;47.992;10.158;2022-10-16T07:00:44;1.30;;;1.10;;
7233;SDS011;3658;47.992;10.158;2022-10-16T07:03:13;1.60;;;1.07;;
7233;SDS011;3658;47.992;10.158;2022-10-16T07:05:41;1.20;;;1.10;;
7233;SDS011;3658;47.992;10.158;2022-10-16T07:08:08;1.63;;;1.10;;
7233;SDS011;3658;47.992;10.158;2022-10-16T07:10:35;1.20;;;1.10;;
7233;SDS011;3658;47.992;10.158;2022-10-16T07:13:02;1.17;;;0.93;;
7233;SDS011;3658;47.992;10.158;2022-10-16T07:15:30;1.20;;;1.10;;
7233;SDS011;3658;47.992;10.158;2022-10-16T07:17:57;1.97;;;0.93;;
7233;SDS011;3658;47.992;10.158;2022-10-16T07:20:25;3.07;;;1.00;;
7233;SDS011;3658;47.992;10.158;2022-10-16T07:22:52;1.00;;;1.00;;
7233;SDS011;3658;47.992;10.158;2022-10-16T07:25:19;1.30;;;1.10;;
7233;SDS011;3658;47.992;10.158;2022-10-16T07:27:46;1.50;;;1.10;;
7233;SDS011;3658;47.992;10.158;2022-10-16T07:30:13;1.23;;;1.13;;
7233;SDS011;3658;47.992;10.158;2022-10-16T07:32:40;1.20;;;1.10;;
7233;SDS011;3658;47.992;10.158;2022-10-16T07:35:07;2.30;;;1.10;;
7233;SDS011;3658;47.992;10.158;2022-10-16T07:37:36;1.97;;;1.17;;
7233;SDS011;3658;47.992;10.158;2022-10-16T07:40:03;9.53;;;1.23;;
7233;SDS011;3658;47.992;10.158;2022-10-16T07:42:31;1.63;;;1.30;;
7233;SDS011;3658;47.992;10.158;2022-10-16T07:44:58;2.90;;;1.10;;
7233;SDS011;3658;47.992;10.158;2022-10-16T07:47:25;2.50;;;1.03;;
7233;SDS011;3658;47.992;10.158;2022-10-16T07:49:52;2.50;;;1.10;;
7233;SDS011;3658;47.992;10.158;2022-10-16T07:52:19;1.27;;;1.00;;
7233;SDS011;3658;47.992;10.158;2022-10-16T07:54:47;1.83;;;1.23;;
7233;SDS011;3658;47.992;10.158;2022-10-16T07:57:14;2.10;;;1.03;;
7233;SDS011;3658;47.992;10.158;2022-10-16T07:59:44;1.20;;;1.10;;
7233;SDS011;3658;47.992;10.158;2022-10-16T08:02:13;1.03;;;0.93;;
7233;SDS011;3658;47.992;10.158;2022-10-16T08:04:40;1.97;;;1.20;;
7233;SDS011;3658;47.992;10.158;2022-10-16T08:07:07;1.30;;;1.03;;
7233;SDS011;3658;47.992;10.158;2022-10-16T08:09:34;1.20;;;1.10;;
7233;SDS011;3658;47.992;10.158;2022-10-16T08:12:03;1.60;;;1.10;;
7233;SDS011;3658;47.992;10.158;2022-10-16T08:14:30;3.43;;;1.20;;
7233;SDS011;3658;47.992;10.158;2022-10-16T08:16:57;0.90;;;0.80;;
7233;SDS011;3658;47.992;10.158;2022-10-16T08:19:24;1.33;;;1.00;;
7233;SDS011;3658;47.992;10.158;2022-10-16T08:21:51;0.90;;;0.90;;
7233;SDS011;3658;47.992;10.158;2022-10-16T08:24:18;4.57;;;1.10;;
7233;SDS011;3658;47.992;10.158;2022-10-16T08:26:45;1.13;;;1.03;;
7233;SDS011;3658;47.992;10.158;2022-10-16T08:29:14;1.17;;;1.10;;
7233;SDS011;3658;47.992;10.158;2022-10-16T08:31:41;1.57;;;1.10;;
7233;SDS011;3658;47.992;10.158;2022-10-16T08:34:08;1.20;;;1.10;;
7233;SDS011;3658;47.992;10.158;2022-10-16T08:36:35;2.13;;;0.93;;
7233;SDS011;3658;47.992;10.158;2022-10-16T08:39:02;2.73;;;1.07;;
7233;SDS011;3658;47.992;10.158;2022-10-16T08:41:51;1.27;;;1.00;;
7233;SDS011;3658;47.992;10.158;2022-10-16T08:44:42;1.20;;;1.10;;
7233;SDS011;3658;47.992;10.158;2022-10-16T08:47:25;3.27;;;1.10;;
7233;SDS011;3658;47.992;10.158;2022-10-16T08:50:09;3.17;;;1.07;;
7233;SDS011;3658;47.992;10.158;2022-10-16T08:52:38;0.97;;;0.97;;
7233;SDS011;3658;47.992;10.158;2022-10-16T08:55:08;2.60;;;1.33;;
7233;SDS011;3658;47.992;10.158;2022-10-16T08:57:51;5.53;;;1.70;;
7233;SDS011;3658;47.992;10.158;2022-10-16T09:00:19;1.10;;;1.00;;
7233;SDS011;3658;47.992;10.158;2022-10-16T09:02:49;3.67;;;1.13;;
7233;SDS011;3658;47.992;10.158;2022-10-16T09:05:33;5.20;;;1.33;;
7233;SDS011;3658;47.992;10.158;2022-10-16T09:08:12;4.67;;;1.20;;
7233;SDS011;3658;47.992;10.158;2022-10-16T09:10:48;1.60;;;1.00;;
7233;SDS011;3658;47.992;10.158;2022-10-16T09:13:23;1.30;;;1.20;;
7233;SDS011;3658;47.992;10.158;2022-10-16T09:15:58;3.10;;;1.40;;
7233;SDS011;3658;47.992;10.158;2022-10-16T09:18:38;4.10;;;1.43;;
7233;SDS011;3658;47.992;10.158;2022-10-16T09:21:09;1.73;;;1.47;;
7233;SDS011;3658;47.992;10.158;2022-10-16T09:23:41;1.63;;;1.33;;
7233;SDS011;3658;47.992;10.158;2022-10-16T09:26:09;2.30;;;1.50;;
7233;SDS011;3658;47.992;10.158;2022-10-16T09:28:39;1.50;;;1.33;;
7233;SDS011;3658;47.992;10.158;2022-10-16T09:31:10;5.83;;;2.03;;
7233;SDS011;3658;47.992;10.158;2022-10-16T09:33:41;2.80;;;1.70;;
7233;SDS011;3658;47.992;10.158;2022-10-16T09:36:10;4.77;;;1.83;;
7233;SDS011;3658;47.992;10.158;2022-10-16T09:38:39;3.53;;;1.87;;
7233;SDS011;3658;47.992;10.158;2022-10-16T09:41:12;3.03;;;2.20;;
7233;SDS011;3658;47.992;10.158;2022-10-16T09:43:46;3.87;;;1.90;;
7233;SDS011;3658;47.992;10.158;2022-10-16T09:46:24;2.93;;;1.90;;
7233;SDS011;3658;47.992;10.158;2022-10-16T09:48:54;3.03;;;1.83;;
7233;SDS011;3658;47.992;10.158;2022-10-16T09:51:24;3.87;;;1.80;;
7233;SDS011;3658;47.992;10.158;2022-10-16T09:53:56;2.90;;;1.80;;
7233;SDS011;3658;47.992;10.158;2022-10-16T09:56:25;3.33;;;2.30;;
7233;SDS011;3658;47.992;10.158;2022-10-16T09:58:54;4.33;;;2.00;;
7233;SDS011;3658;47.992;10.158;2022-10-16T10:01:26;4.17;;;1.80;;
7233;SDS011;3658;47.992;10.158;2022-10-16T10:03:57;3.27;;;1.83;;
7233;SDS011;3658;47.992;10.158;2022-10-16T10:06:29;1.93;;;1.73;;
7233;SDS011;3658;47.992;10.158;2022-10-16T10:09:03;1.73;;;1.50;;
7233;SDS011;3658;47.992;10.158;2022-10-16T10:11:36;1.93;;;1.73;;
7233;SDS011;3658;47.992;10.158;2022-10-16T10:14:04;2.70;;;1.60;;
7233;SDS011;3658;47.992;10.158;2022-10-16T10:16:33;3.50;;;1.90;;
7233;SDS011;3658;47.992;10.158;2022-10-16T10:19:02;3.17;;;1.70;;
7233;SDS011;3658;47.992;10.158;2022-10-16T10:21:29;3.73;;;2.63;;
7233;SDS011;3658;47.992;10.158;2022-10-16T10:24:04;5.60;;;4.13;;
7233;SDS011;3658;47.992;10.158;2022-10-16T10:26:31;3.77;;;3.13;;
7233;SDS011;3658;47.992;10.158;2022-10-16T10:29:01;2.53;;;2.33;;
7233;SDS011;3658;47.992;10.158;2022-10-16T10:31:39;3.73;;;2.30;;
7233;SDS011;3658;47.992;10.158;2022-10-16T10:34:32;2.93;;;2.00;;
7233;SDS011;3658;47.992;10.158;2022-10-16T10:37:10;1.87;;;1.70;;
7233;SDS011;3658;47.992;10.158;2022-10-16T10:39:52;2.77;;;1.80;;
7233;SDS011;3658;47.992;10.158;2022-10-16T10:42:25;2.30;;;1.60;;
7233;SDS011;3658;47.992;10.158;2022-10-16T10:45:12;2.63;;;1.90;;
7233;SDS011;3658;47.992;10.158;2022-10-16T10:47:50;3.00;;;2.13;;
7233;SDS011;3658;47.992;10.158;2022-10-16T10:50:30;4.00;;;2.03;;
7233;SDS011;3658;47.992;10.158;2022-10-16T10:53:06;3.47;;;1.80;;
7233;SDS011;3658;47.992;10.158;2022-10-16T10:55:44;4.37;;;1.90;;
7233;SDS011;3658;47.992;10.158;2022-10-16T10:58:27;2.80;;;1.70;;
7233;SDS011;3658;47.992;10.158;2022-10-16T11:01:22;1.97;;;1.53;;
7233;SDS011;3658;47.992;10.158;2022-10-16T11:04:03;1.70;;;1.30;;
7233;SDS011;3658;47.992;10.158;2022-10-16T11:06:47;2.43;;;1.80;;
7233;SDS011;3658;47.992;10.158;2022-10-16T11:09:24;2.23;;;1.83;;
7233;SDS011;3658;47.992;10.158;2022-10-16T11:11:58;2.53;;;1.77;;
7233;SDS011;3658;47.992;10.158;2022-10-16T11:14:33;3.67;;;1.67;;
7233;SDS011;3658;47.992;10.158;2022-10-16T11:17:07;2.73;;;1.80;;
7233;SDS011;3658;47.992;10.158;2022-10-16T11:19:41;1.50;;;1.40;;
7233;SDS011;3658;47.992;10.158;2022-10-16T11:22:15;2.43;;;1.60;;
7233;SDS011;3658;47.992;10.158;2022-10-16T11:24:48;2.60;;;1.50;;
7233;SDS011;3658;47.992;10.158;2022-10-16T11:27:22;1.60;;;1.50;;
7233;SDS011;3658;47.992;10.158;2022-10-16T11:30:02;1.93;;;1.43;;
7233;SDS011;3658;47.992;10.158;2022-10-16T11:32:36;6.17;;;1.83;;
7233;SDS011;3658;47.992;10.158;2022-10-16T11:35:14;2.37;;;1.47;;
7233;SDS011;3658;47.992;10.158;2022-10-16T11:37:47;1.70;;;1.60;;
7233;SDS011;3658;47.992;10.158;2022-10-16T11:40:19;1.30;;;1.20;;
7233;SDS011;3658;47.992;10.158;2022-10-16T11:42:51;1.60;;;1.40;;
7233;SDS011;3658;47.992;10.158;2022-10-16T11:45:24;1.93;;;1.60;;
7233;SDS011;3658;47.992;10.158;2022-10-16T11:47:59;2.57;;;1.37;;
7233;SDS011;3658;47.992;10.158;2022-10-16T11:50:33;1.73;;;1.40;;
7233;SDS011;3658;47.992;10.158;2022-10-16T11:53:04;1.40;;;1.30;;
7233;SDS011;3658;47.992;10.158;2022-10-16T11:59:02;1.50;;;1.40;;
7233;SDS011;3658;47.992;10.158;2022-10-16T12:01:33;1.47;;;1.37;;
7233;SDS011;3658;47.992;10.158;2022-10-16T12:07:02;1.40;;;1.10;;
7233;SDS011;3658;47.992;10.158;2022-10-16T12:09:32;2.33;;;1.40;;
7233;SDS011;3658;47.992;10.158;2022-10-16T12:12:00;2.53;;;1.40;;
7233;SDS011;3658;47.992;10.158;2022-10-16T12:14:36;1.70;;;1.30;;
7233;SDS011;3658;47.992;10.158;2022-10-16T12:19:57;2.03;;;1.50;;
7233;SDS011;3658;47.992;10.158;2022-10-16T12:22:29;1.20;;;1.10;;
7233;SDS011;3658;47.992;10.158;2022-10-16T12:24:58;1.60;;;1.50;;
7233;SDS011;3658;47.992;10.158;2022-10-16T12:27:27;2.17;;;1.30;;
7233;SDS011;3658;47.992;10.158;2022-10-16T12:29:56;1.37;;;1.27;;
7233;SDS011;3658;47.992;10.158;2022-10-16T12:32:27;1.37;;;1.20;;
7233;SDS011;3658;47.992;10.158;2022-10-16T12:34:57;2.97;;;1.43;;
7233;SDS011;3658;47.992;10.158;2022-10-16T12:37:26;1.30;;;1.20;;
7233;SDS011;3658;47.992;10.158;2022-10-16T12:39:57;1.30;;;1.10;;
7233;SDS011;3658;47.992;10.158;2022-10-16T12:42:31;1.50;;;1.23;;
7233;SDS011;3658;47.992;10.158;2022-10-16T12:45:00;1.47;;;1.30;;
7233;SDS011;3658;47.992;10.158;2022-10-16T12:47:37;1.70;;;1.20;;
7233;SDS011;3658;47.992;10.158;2022-10-16T12:50:25;1.27;;;1.17;;
7233;SDS011;3658;47.992;10.158;2022-10-16T12:52:55;1.20;;;1.10;;
7233;SDS011;3658;47.992;10.158;2022-10-16T12:55:23;5.73;;;1.20;;
7233;SDS011;3658;47.992;10.158;2022-10-16T12:57:59;5.00;;;1.40;;
7233;SDS011;3658;47.992;10.158;2022-10-16T13:00:36;1.50;;;1.40;;
7233;SDS011;3658;47.992;10.158;2022-10-16T13:03:25;1.17;;;1.10;;
7233;SDS011;3658;47.992;10.158;2022-10-16T13:06:13;3.17;;;1.33;;
7233;SDS011;3658;47.992;10.158;2022-10-16T13:08:55;7.03;;;1.50;;
7233;SDS011;3658;47.992;10.158;2022-10-16T13:11:52;1.53;;;1.40;;
7233;SDS011;3658;47.992;10.158;2022-10-16T13:14:40;1.93;;;1.77;;
7233;SDS011;3658;47.992;10.158;2022-10-16T13:17:31;2.10;;;1.40;;
7233;SDS011;3658;47.992;10.158;2022-10-16T13:20:09;3.87;;;1.50;;
7233;SDS011;3658;47.992;10.158;2022-10-16T13:22:45;2.13;;;1.30;;
7233;SDS011;3658;47.992;10.158;2022-10-16T13:25:21;1.80;;;1.37;;
7233;SDS011;3658;47.992;10.158;2022-10-16T13:27:56;1.83;;;1.47;;
7233;SDS011;3658;47.992;10.158;2022-10-16T13:30:26;2.97;;;1.93;;
7233;SDS011;3658;47.992;10.158;2022-10-16T13:32:58;3.23;;;1.90;;
7233;SDS011;3658;47.992;10.158;2022-10-16T13:35:28;4.07;;;1.50;;
7233;SDS011;3658;47.992;10.158;2022-10-16T13:38:06;3.97;;;1.27;;
7233;SDS011;3658;47.992;10.158;2022-10-16T13:40:49;2.77;;;1.30;;
7233;SDS011;3658;47.992;10.158;2022-10-16T13:43:21;1.20;;;1.10;;
7233;SDS011;3658;47.992;10.158;2022-10-16T13:45:55;1.30;;;1.20;;
7233;SDS011;3658;47.992;10.158;2022-10-16T13:48:23;2.73;;;1.10;;
7233;SDS011;3658;47.992;10.158;2022-10-16T13:51:03;1.73;;;1.30;;
7233;SDS011;3658;47.992;10.158;2022-10-16T13:53:33;1.57;;;1.20;;
7233;SDS011;3658;47.992;10.158;2022-10-16T13:56:04;4.80;;;1.40;;
7233;SDS011;3658;47.992;10.158;2022-10-16T13:58:32;1.87;;;1.70;;
7233;SDS011;3658;47.992;10.158;2022-10-16T14:01:01;1.63;;;1.23;;
7233;SDS011;3658;47.992;10.158;2022-10-16T14:03:30;2.00;;;1.20;;
7233;SDS011;3658;47.992;10.158;2022-10-16T14:05:59;1.83;;;1.20;;
7233;SDS011;3658;47.992;10.158;2022-10-16T14:08:29;1.70;;;1.40;;
7233;SDS011;3658;47.992;10.158;2022-10-16T14:10:57;1.73;;;1.10;;
7233;SDS011;3658;47.992;10.158;2022-10-16T14:13:30;3.30;;;1.30;;
7233;SDS011;3658;47.992;10.158;2022-10-16T14:16:02;1.20;;;1.10;;
7233;SDS011;3658;47.992;10.158;2022-10-16T14:18:33;2.90;;;1.40;;
7233;SDS011;3658;47.992;10.158;2022-10-16T14:21:04;3.07;;;1.53;;
7233;SDS011;3658;47.992;10.158;2022-10-16T14:23:33;1.97;;;1.10;;
7233;SDS011;3658;47.992;10.158;2022-10-16T14:26:06;1.70;;;1.30;;
7233;SDS011;3658;47.992;10.158;2022-10-16T14:28:42;2.60;;;1.37;;
7233;SDS011;3658;47.992;10.158;2022-10-16T14:34:04;1.53;;;1.10;;
7233;SDS011;3658;47.992;10.158;2022-10-16T14:36:46;1.20;;;1.10;;
7233;SDS011;3658;47.992;10.158;2022-10-16T14:39:15;1.27;;;1.17;;
7233;SDS011;3658;47.992;10.158;2022-10-16T14:41:46;1.57;;;1.10;;
7233;SDS011;3658;47.992;10.158;2022-10-16T14:44:16;1.50;;;1.27;;
7233;SDS011;3658;47.992;10.158;2022-10-16T14:46:44;1.40;;;1.30;;
7233;SDS011;3658;47.992;10.158;2022-10-16T14:49:14;2.93;;;1.33;;
7233;SDS011;3658;47.992;10.158;2022-10-16T14:51:43;1.53;;;1.30;;
7233;SDS011;3658;47.992;10.158;2022-10-16T14:54:11;2.03;;;1.30;;
7233;SDS011;3658;47.992;10.158;2022-10-16T14:56:42;1.23;;;1.10;;
7233;SDS011;3658;47.992;10.158;2022-10-16T14:59:14;1.73;;;1.10;;
7233;SDS011;3658;47.992;10.158;2022-10-16T15:01:46;1.30;;;1.20;;
7233;SDS011;3658;47.992;10.158;2022-10-16T15:04:14;1.30;;;1.20;;
7233;SDS011;3658;47.992;10.158;2022-10-16T15:06:41;1.20;;;1.10;;
7233;SDS011;3658;47.992;10.158;2022-10-16T15:09:08;1.57;;;1.20;;
7233;SDS011;3658;47.992;10.158;2022-10-16T15:11:35;1.30;;;1.20;;
7233;SDS011;3658;47.992;10.158;2022-10-16T15:14:03;1.30;;;1.20;;
7233;SDS011;3658;47.992;10.158;2022-10-16T15:16:31;1.47;;;1.13;;
7233;SDS011;3658;47.992;10.158;2022-10-16T15:18:58;1.47;;;1.30;;
7233;SDS011;3658;47.992;10.158;2022-10-16T15:21:26;1.40;;;1.30;;
7233;SDS011;3658;47.992;10.158;2022-10-16T15:23:54;1.40;;;1.30;;
7233;SDS011;3658;47.992;10.158;2022-10-16T15:26:22;1.40;;;1.23;;
7233;SDS011;3658;47.992;10.158;2022-10-16T15:28:49;1.20;;;1.00;;
7233;SDS011;3658;47.992;10.158;2022-10-16T15:31:16;1.20;;;1.10;;
7233;SDS011;3658;47.992;10.158;2022-10-16T15:33:45;1.37;;;1.20;;